Time;durP1;ratioP1;P1;durP2;ratioP2;P2;SDS_P1;SDS_P2;PMS_P1;PMS_P2;Temp;Humidity;BMP_temperature;BMP_pressure;BME280_temperature;BME280_humidity;BME280_pressure;Samples;Min_cycle;Max_cycle;Signal;HPM_P1;HPM_P2
2023/05/19 00:00:00;;;;;;;;;;;12.10;98.90;;;;;;7332876;19;109878;-60
2023/05/19 00:02:32;;;;;;;;;;;12.10;99.20;;;;;;7334699;19;109392;-61
2023/05/19 00:05:00;;;;;;;;;;;12.00;99.40;;;;;;7330281;19;111126;-62
2023/05/19 00:07:29;;;;;;;;;;;12.00;99.00;;;;;;7336366;19;110174;-60
2023/05/19 00:09:57;;;;;;;;;;;12.10;99.10;;;;;;7338781;19;109968;-60
2023/05/19 00:12:24;;;;;;;;;;;12.10;98.80;;;;;;7332877;19;110172;-61
2023/05/19 00:14:51;;;;;;;;;;;12.10;98.90;;;;;;7334753;19;109599;-60
2023/05/19 00:17:19;;;;;;;;;;;12.10;98.90;;;;;;7328217;19;110141;-61
2023/05/19 00:19:46;;;;;;;;;;;12.00;98.80;;;;;;7333191;19;109517;-61
2023/05/19 00:22:13;;;;;;;;;;;12.00;98.80;;;;;;7331199;19;110106;-61
2023/05/19 00:24:40;;;;;;;;;;;12.00;98.70;;;;;;7332952;19;111345;-60
2023/05/19 00:27:07;;;;;;;;;;;12.10;99.30;;;;;;7334582;19;110316;-60
2023/05/19 00:29:34;;;;;;;;;;;12.10;98.50;;;;;;7324996;19;109399;-61
2023/05/19 00:32:01;;;;;;;;;;;12.10;98.70;;;;;;7334315;19;110191;-61
2023/05/19 00:34:28;;;;;;;;;;;12.00;98.90;;;;;;7332270;19;111218;-60
2023/05/19 00:36:55;;;;;;;;;;;12.00;98.70;;;;;;7334612;19;113055;-60
2023/05/19 00:39:22;;;;;;;;;;;12.00;99.00;;;;;;7332228;19;109606;-60
2023/05/19 00:41:49;;;;;;;;;;;11.90;98.90;;;;;;7330371;19;109564;-60
2023/05/19 00:44:16;;;;;;;;;;;11.90;99.00;;;;;;7330773;19;111143;-60
2023/05/19 00:46:43;;;;;;;;;;;11.90;98.90;;;;;;7332777;19;109579;-61
2023/05/19 00:49:10;;;;;;;;;;;11.90;98.80;;;;;;7329242;19;110514;-60
2023/05/19 00:51:37;;;;;;;;;;;11.90;99.40;;;;;;7332586;19;110595;-60
2023/05/19 00:54:05;;;;;;;;;;;11.80;99.50;;;;;;7335657;19;109685;-61
2023/05/19 00:56:32;;;;;;;;;;;11.70;99.60;;;;;;7331310;19;110080;-61
2023/05/19 00:58:59;;;;;;;;;;;11.70;99.30;;;;;;7333596;19;109504;-61
2023/05/19 01:01:27;;;;;;;;;;;11.70;99.20;;;;;;7331837;19;109918;-62
2023/05/19 01:03:57;;;;;;;;;;;11.80;99.10;;;;;;7329927;19;111201;-60
2023/05/19 01:06:26;;;;;;;;;;;11.80;99.40;;;;;;7331861;19;110789;-60
2023/05/19 01:08:53;;;;;;;;;;;11.80;99.40;;;;;;7331917;19;111555;-60
2023/05/19 01:11:20;;;;;;;;;;;11.60;99.90;;;;;;7328986;19;111472;-60
2023/05/19 01:13:47;;;;;;;;;;;11.40;99.90;;;;;;7337175;19;109907;-61
2023/05/19 01:16:21;;;;;;;;;;;11.30;99.90;;;;;;7330883;19;111488;-60
2023/05/19 01:19:09;;;;;;;;;;;11.20;99.90;;;;;;7332875;19;109890;-60
2023/05/19 01:21:50;;;;;;;;;;;11.20;99.90;;;;;;7330329;19;109301;-60
2023/05/19 01:24:21;;;;;;;;;;;11.20;99.90;;;;;;7331275;19;110038;-60
2023/05/19 01:27:03;;;;;;;;;;;11.20;99.90;;;;;;7332400;19;109316;-61
2023/05/19 01:29:49;;;;;;;;;;;11.20;99.90;;;;;;7331008;19;111701;-60
2023/05/19 01:32:18;;;;;;;;;;;11.30;99.90;;;;;;7327431;19;110863;-60
2023/05/19 01:34:48;;;;;;;;;;;11.20;99.90;;;;;;7326977;19;109627;-60
2023/05/19 01:37:16;;;;;;;;;;;11.10;99.90;;;;;;7336728;19;110003;-61
2023/05/19 01:39:43;;;;;;;;;;;11.10;99.90;;;;;;7326778;19;110114;-61
2023/05/19 01:42:11;;;;;;;;;;;10.90;99.90;;;;;;7330724;19;110297;-61
2023/05/19 01:44:38;;;;;;;;;;;10.80;99.90;;;;;;7339701;19;110394;-60
2023/05/19 01:47:06;;;;;;;;;;;10.70;99.90;;;;;;7331284;19;110558;-60
2023/05/19 01:49:33;;;;;;;;;;;10.70;99.90;;;;;;7338336;19;111110;-61
2023/05/19 01:52:01;;;;;;;;;;;10.70;99.90;;;;;;7334080;19;110491;-60
2023/05/19 01:54:28;;;;;;;;;;;10.60;99.90;;;;;;7339867;19;109682;-61
2023/05/19 01:57:01;;;;;;;;;;;10.60;99.90;;;;;;7339903;19;109175;-61
2023/05/19 01:59:46;;;;;;;;;;;10.60;99.90;;;;;;7342767;19;111620;-60
2023/05/19 02:02:33;;;;;;;;;;;10.60;99.90;;;;;;7335200;19;110159;-61
2023/05/19 02:05:13;;;;;;;;;;;10.60;99.90;;;;;;7335358;19;110756;-60
2023/05/19 02:07:43;;;;;;;;;;;10.70;99.90;;;;;;7336018;19;109420;-60
2023/05/19 02:10:13;;;;;;;;;;;10.70;99.90;;;;;;7336881;19;109587;-60
2023/05/19 02:12:41;;;;;;;;;;;10.70;99.90;;;;;;7336556;19;111861;-60
2023/05/19 02:15:08;;;;;;;;;;;10.80;99.90;;;;;;7336298;19;109751;-60
2023/05/19 02:17:39;;;;;;;;;;;10.70;99.90;;;;;;7335359;19;109670;-60
2023/05/19 02:20:07;;;;;;;;;;;10.60;99.90;;;;;;7334696;19;110338;-60
2023/05/19 02:22:34;;;;;;;;;;;10.50;99.90;;;;;;7336006;19;109843;-61
2023/05/19 02:25:01;;;;;;;;;;;10.50;99.90;;;;;;7336615;19;110085;-60
2023/05/19 02:27:29;;;;;;;;;;;10.60;99.90;;;;;;7339011;19;110021;-60
2023/05/19 02:29:56;;;;;;;;;;;10.60;99.90;;;;;;7334164;19;109807;-62
2023/05/19 02:32:23;;;;;;;;;;;10.60;99.90;;;;;;7337174;19;109881;-60
2023/05/19 02:34:52;;;;;;;;;;;10.50;99.90;;;;;;7333882;19;109838;-60
2023/05/19 02:37:22;;;;;;;;;;;10.50;99.90;;;;;;7338231;19;110451;-60
2023/05/19 02:39:50;;;;;;;;;;;10.50;99.90;;;;;;7332051;19;110882;-60
2023/05/19 02:42:17;;;;;;;;;;;10.40;99.90;;;;;;7337061;19;109529;-62
2023/05/19 02:44:44;;;;;;;;;;;10.40;99.90;;;;;;7341395;19;109552;-64
2023/05/19 02:47:11;;;;;;;;;;;10.30;99.90;;;;;;7331316;19;109752;-61
2023/05/19 02:49:39;;;;;;;;;;;10.30;99.90;;;;;;7335079;19;109741;-62
2023/05/19 02:52:06;;;;;;;;;;;10.20;99.90;;;;;;7332222;19;110351;-60
2023/05/19 02:54:34;;;;;;;;;;;10.30;99.90;;;;;;7335101;19;110135;-60
2023/05/19 02:57:01;;;;;;;;;;;10.20;99.90;;;;;;7331378;19;111108;-60
2023/05/19 02:59:28;;;;;;;;;;;10.10;99.90;;;;;;7336826;19;110775;-60
2023/05/19 03:01:57;;;;;;;;;;;10.00;99.90;;;;;;7334411;19;110836;-60
2023/05/19 03:04:24;;;;;;;;;;;9.80;99.90;;;;;;7332390;19;109592;-61
2023/05/19 03:06:53;;;;;;;;;;;9.80;99.90;;;;;;7339630;19;110779;-60
2023/05/19 03:09:20;;;;;;;;;;;9.80;99.90;;;;;;7332919;19;109463;-60
2023/05/19 03:11:47;;;;;;;;;;;9.80;99.90;;;;;;7334597;19;109977;-60
2023/05/19 03:14:14;;;;;;;;;;;9.70;99.90;;;;;;7331553;19;110501;-60
2023/05/19 03:16:41;;;;;;;;;;;9.70;99.90;;;;;;7335133;19;112063;-60
2023/05/19 03:19:08;;;;;;;;;;;9.70;99.90;;;;;;7333398;19;110337;-64
2023/05/19 03:21:35;;;;;;;;;;;9.70;99.90;;;;;;7333614;19;111567;-60
2023/05/19 03:24:03;;;;;;;;;;;9.60;99.90;;;;;;7331039;19;110348;-60
2023/05/19 03:26:30;;;;;;;;;;;9.60;99.90;;;;;;7339567;19;110181;-60
2023/05/19 03:28:57;;;;;;;;;;;9.50;99.90;;;;;;7332740;19;109793;-60
2023/05/19 03:31:25;;;;;;;;;;;9.50;99.90;;;;;;7332450;19;109840;-60
2023/05/19 03:33:52;;;;;;;;;;;9.50;99.90;;;;;;7333449;19;111918;-62
2023/05/19 03:36:20;;;;;;;;;;;9.50;99.90;;;;;;7335809;19;110174;-62
2023/05/19 03:38:48;;;;;;;;;;;9.50;99.90;;;;;;7331471;19;110466;-60
2023/05/19 03:41:15;;;;;;;;;;;9.40;99.90;;;;;;7335618;19;109434;-61
2023/05/19 03:43:42;;;;;;;;;;;9.40;99.90;;;;;;7331446;19;111690;-61
2023/05/19 03:46:09;;;;;;;;;;;9.40;99.90;;;;;;7330242;19;111164;-61
2023/05/19 03:48:36;;;;;;;;;;;9.30;99.90;;;;;;7338797;19;109387;-61
2023/05/19 03:51:03;;;;;;;;;;;9.30;99.90;;;;;;7333334;19;110131;-61
2023/05/19 03:53:30;;;;;;;;;;;9.30;99.90;;;;;;7331654;19;109281;-61
2023/05/19 03:55:58;;;;;;;;;;;9.30;99.90;;;;;;7335713;19;109594;-61
2023/05/19 03:58:25;;;;;;;;;;;9.30;99.90;;;;;;7329761;19;110552;-61
2023/05/19 04:00:53;;;;;;;;;;;9.30;99.90;;;;;;7334402;19;109619;-61
2023/05/19 04:03:20;;;;;;;;;;;9.30;99.90;;;;;;7327464;19;110301;-60
2023/05/19 04:05:47;;;;;;;;;;;9.30;99.90;;;;;;7332087;19;110241;-61
2023/05/19 04:08:14;;;;;;;;;;;9.30;99.90;;;;;;7332561;19;111566;-61
2023/05/19 04:10:41;;;;;;;;;;;9.30;99.90;;;;;;7338749;19;111164;-61
2023/05/19 04:13:08;;;;;;;;;;;9.30;99.90;;;;;;7327346;19;110210;-62
2023/05/19 04:15:35;;;;;;;;;;;9.30;99.90;;;;;;7325880;19;110060;-68
2023/05/19 04:18:02;;;;;;;;;;;9.30;99.90;;;;;;7330672;19;111037;-64
2023/05/19 04:20:30;;;;;;;;;;;9.30;99.90;;;;;;7337598;19;109689;-67
2023/05/19 04:22:57;;;;;;;;;;;9.30;99.90;;;;;;7331354;19;110147;-69
2023/05/19 04:25:26;;;;;;;;;;;9.30;99.90;;;;;;7334723;19;110162;-60
2023/05/19 04:27:56;;;;;;;;;;;9.30;99.90;;;;;;7328587;19;109871;-61
2023/05/19 04:30:23;;;;;;;;;;;9.30;99.90;;;;;;7332598;19;112216;-61
2023/05/19 04:32:50;;;;;;;;;;;9.30;99.90;;;;;;7335949;19;110770;-60
2023/05/19 04:35:18;;;;;;;;;;;9.30;99.90;;;;;;7333182;19;110303;-60
2023/05/19 04:37:45;;;;;;;;;;;9.30;99.90;;;;;;7329942;19;110440;-60
2023/05/19 04:40:12;;;;;;;;;;;9.30;99.90;;;;;;7332760;19;110044;-61
2023/05/19 04:42:44;;;;;;;;;;;9.30;99.90;;;;;;7330792;19;110097;-60
2023/05/19 04:45:12;;;;;;;;;;;9.40;99.90;;;;;;7328450;19;110266;-61
2023/05/19 04:47:40;;;;;;;;;;;9.40;99.90;;;;;;7332072;19;111889;-61
2023/05/19 04:50:09;;;;;;;;;;;9.40;99.90;;;;;;7332534;19;110060;-61
2023/05/19 04:52:36;;;;;;;;;;;9.40;99.90;;;;;;7328663;19;110090;-61
2023/05/19 04:55:03;;;;;;;;;;;9.50;99.90;;;;;;7331187;19;109763;-60
2023/05/19 04:57:30;;;;;;;;;;;9.50;99.90;;;;;;7330767;19;111237;-60
2023/05/19 04:59:59;;;;;;;;;;;9.60;99.90;;;;;;7332674;19;109996;-61
2023/05/19 05:02:26;;;;;;;;;;;9.60;99.90;;;;;;7331046;19;111548;-61
2023/05/19 05:04:55;;;;;;;;;;;9.60;99.90;;;;;;7326095;19;109872;-61
2023/05/19 05:07:22;;;;;;;;;;;9.60;99.90;;;;;;7330620;19;111847;-61
2023/05/19 05:09:49;;;;;;;;;;;9.70;99.90;;;;;;7330664;19;110473;-60
2023/05/19 05:12:17;;;;;;;;;;;9.70;99.90;;;;;;7331209;19;110186;-61
2023/05/19 05:14:44;;;;;;;;;;;9.80;99.90;;;;;;7330630;19;110274;-60
2023/05/19 05:17:12;;;;;;;;;;;9.80;99.90;;;;;;7339644;19;112349;-60
2023/05/19 05:19:39;;;;;;;;;;;9.90;99.90;;;;;;7341286;19;110060;-60
2023/05/19 05:22:07;;;;;;;;;;;9.90;99.90;;;;;;7337325;19;110908;-61
2023/05/19 05:24:35;;;;;;;;;;;9.90;99.90;;;;;;7337712;19;112065;-61
2023/05/19 05:27:02;;;;;;;;;;;9.90;99.90;;;;;;7337425;19;109867;-61
2023/05/19 05:29:32;;;;;;;;;;;9.90;99.90;;;;;;7338731;19;110308;-60
2023/05/19 05:31:59;;;;;;;;;;;9.90;99.90;;;;;;7337746;19;111704;-60
2023/05/19 05:34:27;;;;;;;;;;;10.00;99.90;;;;;;7337626;19;109279;-60
2023/05/19 05:36:54;;;;;;;;;;;10.00;99.90;;;;;;7343194;19;110316;-60
2023/05/19 05:39:21;;;;;;;;;;;10.10;99.90;;;;;;7334907;19;110165;-60
2023/05/19 05:41:48;;;;;;;;;;;10.10;99.90;;;;;;7336535;19;110410;-61
2023/05/19 05:44:15;;;;;;;;;;;10.10;99.90;;;;;;7337995;19;111545;-60
2023/05/19 05:46:42;;;;;;;;;;;10.20;99.90;;;;;;7334916;19;110084;-60
2023/05/19 05:49:11;;;;;;;;;;;10.20;99.90;;;;;;7337005;19;111499;-61
2023/05/19 05:51:38;;;;;;;;;;;10.30;99.90;;;;;;7337129;19;110484;-61
2023/05/19 05:54:10;;;;;;;;;;;10.30;99.90;;;;;;7331582;19;111075;-65
2023/05/19 05:56:37;;;;;;;;;;;10.30;99.90;;;;;;7332580;19;111446;-65
2023/05/19 05:59:04;;;;;;;;;;;10.30;99.90;;;;;;7339389;19;111203;-65
2023/05/19 06:01:34;;;;;;;;;;;10.30;99.90;;;;;;7338587;19;110010;-65
2023/05/19 06:04:01;;;;;;;;;;;10.40;99.90;;;;;;7335629;19;110655;-64
2023/05/19 06:06:28;;;;;;;;;;;10.40;99.90;;;;;;7338052;19;110465;-66
2023/05/19 06:08:55;;;;;;;;;;;10.50;99.90;;;;;;7335399;19;110075;-65
2023/05/19 06:11:23;;;;;;;;;;;10.60;99.90;;;;;;7335151;19;112096;-65
2023/05/19 06:13:50;;;;;;;;;;;10.60;99.90;;;;;;7336914;19;110986;-65
2023/05/19 06:16:17;;;;;;;;;;;10.70;99.90;;;;;;7333201;19;110912;-65
2023/05/19 06:18:45;;;;;;;;;;;10.80;99.90;;;;;;7335255;19;110307;-65
2023/05/19 06:21:12;;;;;;;;;;;10.90;99.90;;;;;;7338767;19;110927;-64
2023/05/19 06:23:40;;;;;;;;;;;11.00;99.90;;;;;;7338891;19;111154;-65
2023/05/19 06:26:07;;;;;;;;;;;11.10;99.90;;;;;;7334852;19;109724;-68
2023/05/19 06:28:34;;;;;;;;;;;11.20;99.90;;;;;;7336887;19;109277;-65
2023/05/19 06:31:01;;;;;;;;;;;11.30;99.90;;;;;;7333985;19;110680;-65
2023/05/19 06:33:28;;;;;;;;;;;11.30;99.90;;;;;;7340883;19;110055;-65
2023/05/19 06:35:55;;;;;;;;;;;11.40;99.90;;;;;;7334053;19;109638;-65
2023/05/19 06:38:22;;;;;;;;;;;11.30;99.90;;;;;;7332279;19;113014;-65
2023/05/19 06:40:49;;;;;;;;;;;11.40;99.90;;;;;;7336864;19;109801;-64
2023/05/19 06:43:16;;;;;;;;;;;11.50;99.90;;;;;;7341336;19;109867;-65
2023/05/19 06:45:43;;;;;;;;;;;11.60;99.90;;;;;;7337976;19;109599;-65
2023/05/19 06:48:10;;;;;;;;;;;11.60;99.90;;;;;;7331016;19;110660;-65
2023/05/19 06:50:37;;;;;;;;;;;11.70;99.90;;;;;;7335666;19;110656;-65
2023/05/19 06:53:05;;;;;;;;;;;11.80;99.90;;;;;;7333370;19;111549;-65
2023/05/19 06:55:32;;;;;;;;;;;11.90;99.90;;;;;;7334492;19;110517;-65
2023/05/19 06:58:04;;;;;;;;;;;12.00;99.90;;;;;;7335619;19;110086;-65
2023/05/19 07:00:31;;;;;;;;;;;12.30;99.90;;;;;;7336742;19;113456;-64
2023/05/19 07:02:59;;;;;;;;;;;12.40;99.90;;;;;;7334163;19;110310;-65
2023/05/19 07:05:26;;;;;;;;;;;12.60;99.90;;;;;;7343679;19;109945;-65
2023/05/19 07:07:53;;;;;;;;;;;12.70;99.90;;;;;;7332222;19;109755;-65
2023/05/19 07:10:20;;;;;;;;;;;12.80;99.90;;;;;;7335010;19;110682;-65
2023/05/19 07:12:47;;;;;;;;;;;12.90;99.90;;;;;;7336533;19;109834;-65
2023/05/19 07:15:14;;;;;;;;;;;13.00;99.90;;;;;;7332741;19;111350;-64
2023/05/19 07:17:41;;;;;;;;;;;13.10;99.90;;;;;;7331807;19;110865;-64
2023/05/19 07:20:09;;;;;;;;;;;13.30;99.90;;;;;;7335750;19;109636;-64
2023/05/19 07:22:37;;;;;;;;;;;13.40;99.90;;;;;;7335208;19;110544;-65
2023/05/19 07:25:05;;;;;;;;;;;13.50;99.90;;;;;;7335650;19;110706;-65
2023/05/19 07:27:32;;;;;;;;;;;13.60;99.90;;;;;;7338630;19;111000;-65
2023/05/19 07:29:59;;;;;;;;;;;13.80;99.90;;;;;;7335732;19;111194;-65
2023/05/19 07:32:26;;;;;;;;;;;13.90;99.90;;;;;;7333451;19;110363;-65
2023/05/19 07:34:53;;;;;;;;;;;14.00;99.90;;;;;;7337720;19;110401;-65
2023/05/19 07:37:20;;;;;;;;;;;14.10;99.90;;;;;;7334284;19;110327;-64
2023/05/19 07:39:47;;;;;;;;;;;14.20;99.90;;;;;;7333064;19;110647;-64
2023/05/19 07:42:14;;;;;;;;;;;14.30;99.90;;;;;;7334189;19;110127;-64
2023/05/19 07:44:41;;;;;;;;;;;14.40;99.90;;;;;;7335836;19;109938;-65
2023/05/19 07:47:08;;;;;;;;;;;14.50;99.90;;;;;;7337859;19;109988;-65
2023/05/19 07:49:35;;;;;;;;;;;14.60;99.90;;;;;;7335590;19;112214;-65
2023/05/19 07:52:03;;;;;;;;;;;14.80;99.90;;;;;;7336872;19;110486;-64
2023/05/19 07:54:30;;;;;;;;;;;15.00;99.90;;;;;;7333232;19;110686;-65
2023/05/19 07:56:57;;;;;;;;;;;15.10;99.90;;;;;;7329471;19;110546;-64
2023/05/19 07:59:24;;;;;;;;;;;15.20;99.90;;;;;;7336201;19;109716;-65
2023/05/19 08:01:51;;;;;;;;;;;15.30;99.90;;;;;;7334079;19;109969;-65
2023/05/19 08:04:18;;;;;;;;;;;15.30;99.90;;;;;;7332635;19;111378;-65
2023/05/19 08:06:45;;;;;;;;;;;15.40;99.90;;;;;;7332693;19;111358;-65
2023/05/19 08:09:13;;;;;;;;;;;15.40;99.90;;;;;;7334278;19;109921;-65
2023/05/19 08:11:40;;;;;;;;;;;15.40;99.90;;;;;;7331902;19;111737;-63
2023/05/19 08:14:07;;;;;;;;;;;15.50;99.90;;;;;;7331568;19;109610;-65
2023/05/19 08:16:34;;;;;;;;;;;15.60;99.90;;;;;;7334566;19;110098;-64
2023/05/19 08:19:03;;;;;;;;;;;15.60;99.90;;;;;;7331594;19;112209;-64
2023/05/19 08:21:33;;;;;;;;;;;15.70;99.90;;;;;;7333168;19;109633;-64
2023/05/19 08:24:00;;;;;;;;;;;15.80;99.90;;;;;;7330441;19;110570;-65
2023/05/19 08:26:27;;;;;;;;;;;15.90;99.90;;;;;;7334758;19;109899;-62
2023/05/19 08:28:55;;;;;;;;;;;16.00;99.90;;;;;;7334347;19;109761;-66
2023/05/19 08:31:22;;;;;;;;;;;16.20;99.90;;;;;;7340032;19;110080;-68
2023/05/19 08:33:49;;;;;;;;;;;16.30;99.90;;;;;;7336318;19;110055;-65
2023/05/19 08:36:17;;;;;;;;;;;16.40;99.90;;;;;;7330410;19;110419;-64
2023/05/19 08:38:44;;;;;;;;;;;16.50;99.90;;;;;;7331191;19;109729;-63
2023/05/19 08:41:11;;;;;;;;;;;16.50;99.90;;;;;;7333365;19;109557;-65
2023/05/19 08:43:38;;;;;;;;;;;16.60;99.90;;;;;;7329840;19;110200;-73
2023/05/19 08:46:06;;;;;;;;;;;16.80;99.90;;;;;;7331701;19;110241;-69
2023/05/19 08:48:34;;;;;;;;;;;17.10;99.90;;;;;;7332274;19;109757;-65
2023/05/19 08:51:07;;;;;;;;;;;17.20;99.90;;;;;;7335133;19;111718;-67
2023/05/19 08:53:39;;;;;;;;;;;17.40;99.90;;;;;;7343232;19;109522;-63
2023/05/19 08:56:09;;;;;;;;;;;17.50;99.90;;;;;;7337613;19;110130;-64
2023/05/19 08:58:42;;;;;;;;;;;17.60;99.90;;;;;;7340491;19;111611;-65
2023/05/19 09:01:12;;;;;;;;;;;17.60;99.90;;;;;;7340690;19;110363;-67
2023/05/19 09:03:39;;;;;;;;;;;17.60;99.90;;;;;;7338462;19;115760;-63
2023/05/19 09:06:11;;;;;;;;;;;17.70;99.90;;;;;;7337145;19;109908;-63
2023/05/19 09:08:41;;;;;;;;;;;17.80;99.90;;;;;;7337423;19;111597;-64
2023/05/19 09:11:09;;;;;;;;;;;17.90;99.90;;;;;;7336532;19;111221;-61
2023/05/19 09:13:36;;;;;;;;;;;18.00;99.90;;;;;;7338333;19;109744;-61
2023/05/19 09:16:03;;;;;;;;;;;18.20;99.90;;;;;;7342209;19;110087;-61
2023/05/19 09:18:30;;;;;;;;;;;18.30;98.90;;;;;;7340588;19;110072;-61
2023/05/19 09:20:59;;;;;;;;;;;18.20;97.70;;;;;;7337812;19;110064;-61
2023/05/19 09:23:27;;;;;;;;;;;18.20;98.10;;;;;;7337627;19;110108;-60
2023/05/19 09:25:55;;;;;;;;;;;18.10;97.90;;;;;;7339499;19;110589;-61
2023/05/19 09:28:34;;;;;;;;;;;18.10;98.30;;;;;;7338023;19;110326;-61
2023/05/19 09:31:08;;;;;;;;;;;18.10;99.70;;;;;;7332931;19;110973;-62
2023/05/19 09:33:36;;;;;;;;;;;18.10;99.10;;;;;;7337375;19;111000;-62
2023/05/19 09:36:05;;;;;;;;;;;18.00;97.80;;;;;;7345402;19;109996;-61
2023/05/19 09:38:33;;;;;;;;;;;17.90;98.20;;;;;;7340317;19;109305;-61
2023/05/19 09:41:00;;;;;;;;;;;18.00;98.90;;;;;;7340123;19;110225;-62
2023/05/19 09:43:28;;;;;;;;;;;18.10;98.50;;;;;;7339212;19;110700;-61
2023/05/19 09:46:00;;;;;;;;;;;18.10;98.00;;;;;;7339776;19;110382;-61
2023/05/19 09:48:27;;;;;;;;;;;18.00;98.50;;;;;;7337220;19;109428;-61
2023/05/19 09:50:56;;;;;;;;;;;18.00;98.20;;;;;;7336155;19;116047;-61
2023/05/19 09:53:24;;;;;;;;;;;18.20;97.60;;;;;;7336741;19;109507;-67
2023/05/19 09:55:55;;;;;;;;;;;18.30;97.50;;;;;;7339152;19;109596;-65
2023/05/19 09:58:23;;;;;;;;;;;18.50;98.70;;;;;;7340686;19;110116;-62
2023/05/19 10:00:51;;;;;;;;;;;18.60;98.10;;;;;;7341365;19;110693;-63
2023/05/19 10:03:18;;;;;;;;;;;18.80;98.40;;;;;;7335428;19;110735;-64
2023/05/19 10:05:46;;;;;;;;;;;19.00;97.00;;;;;;7340216;19;109534;-64
2023/05/19 10:08:16;;;;;;;;;;;19.00;95.80;;;;;;7334499;19;110015;-63
2023/05/19 10:10:46;;;;;;;;;;;18.90;97.40;;;;;;7338657;19;110139;-64
2023/05/19 10:13:15;;;;;;;;;;;19.00;96.60;;;;;;7335452;19;110619;-70
2023/05/19 10:15:42;;;;;;;;;;;19.10;97.00;;;;;;7337414;19;110053;-68
2023/05/19 10:18:25;;;;;;;;;;;19.40;97.30;;;;;;7340351;19;111446;-73
2023/05/19 10:20:53;;;;;;;;;;;19.60;96.90;;;;;;7343803;19;109846;-72
2023/05/19 10:23:21;;;;;;;;;;;19.60;96.10;;;;;;7338069;19;111111;-68
2023/05/19 10:25:49;;;;;;;;;;;19.60;94.80;;;;;;7337803;19;110213;-68
2023/05/19 10:28:19;;;;;;;;;;;19.70;96.90;;;;;;7339184;19;109597;-64
2023/05/19 10:30:49;;;;;;;;;;;19.70;96.10;;;;;;7336740;19;111948;-64
2023/05/19 10:33:17;;;;;;;;;;;19.80;95.60;;;;;;7337028;19;110721;-64
2023/05/19 10:35:50;;;;;;;;;;;19.60;93.60;;;;;;7336670;19;111604;-64
2023/05/19 10:38:23;;;;;;;;;;;19.50;95.00;;;;;;7338273;19;112551;-65
2023/05/19 10:40:56;;;;;;;;;;;19.60;95.40;;;;;;7338905;19;110586;-65
2023/05/19 10:43:27;;;;;;;;;;;19.70;94.00;;;;;;7340458;19;109837;-63
2023/05/19 10:45:55;;;;;;;;;;;19.80;94.40;;;;;;7338844;19;109922;-64
2023/05/19 10:48:23;;;;;;;;;;;19.80;94.30;;;;;;7335169;19;110457;-64
2023/05/19 10:50:53;;;;;;;;;;;19.70;93.00;;;;;;7337262;19;111142;-63
2023/05/19 10:53:21;;;;;;;;;;;19.70;93.90;;;;;;7335877;19;109574;-65
2023/05/19 10:55:52;;;;;;;;;;;19.70;94.10;;;;;;7339109;19;110049;-62
2023/05/19 10:58:38;;;;;;;;;;;20.00;94.80;;;;;;7334796;19;111335;-63
2023/05/19 11:01:28;;;;;;;;;;;20.10;92.60;;;;;;7336656;19;109843;-63
2023/05/19 11:04:03;;;;;;;;;;;20.10;92.50;;;;;;7334579;19;109538;-65
2023/05/19 11:06:36;;;;;;;;;;;20.20;93.50;;;;;;7338289;19;110052;-63
2023/05/19 11:09:14;;;;;;;;;;;20.00;91.70;;;;;;7335531;19;109777;-62
2023/05/19 11:11:48;;;;;;;;;;;19.80;93.00;;;;;;7334937;19;110117;-62
2023/05/19 11:14:18;;;;;;;;;;;20.00;93.30;;;;;;7333362;19;110939;-63
2023/05/19 11:16:46;;;;;;;;;;;20.10;91.90;;;;;;7332633;19;109698;-66
2023/05/19 11:19:18;;;;;;;;;;;20.10;92.40;;;;;;7331664;19;111642;-62
2023/05/19 11:21:51;;;;;;;;;;;20.20;92.40;;;;;;7336444;19;111681;-62
2023/05/19 11:24:34;;;;;;;;;;;20.20;92.00;;;;;;7334974;19;110237;-63
2023/05/19 11:27:19;;;;;;;;;;;20.40;93.80;;;;;;7335326;19;110677;-63
2023/05/19 11:29:47;;;;;;;;;;;20.60;93.80;;;;;;7342249;19;109506;-63
2023/05/19 11:32:14;;;;;;;;;;;20.60;93.10;;;;;;7334183;19;111371;-62
2023/05/19 11:34:43;;;;;;;;;;;20.70;91.40;;;;;;7333085;19;109535;-63
2023/05/19 11:37:10;;;;;;;;;;;20.80;93.30;;;;;;7333959;19;110650;-62
2023/05/19 11:39:38;;;;;;;;;;;20.90;91.70;;;;;;7332137;19;112116;-62
2023/05/19 11:42:05;;;;;;;;;;;20.70;91.80;;;;;;7332188;19;110051;-63
2023/05/19 11:44:32;;;;;;;;;;;20.70;91.20;;;;;;7337496;19;109407;-64
2023/05/19 11:46:59;;;;;;;;;;;20.70;91.30;;;;;;7331036;19;110088;-63
2023/05/19 11:49:29;;;;;;;;;;;20.90;91.10;;;;;;7340726;19;110643;-62
2023/05/19 11:51:58;;;;;;;;;;;21.00;91.30;;;;;;7333808;19;110316;-62
2023/05/19 11:54:30;;;;;;;;;;;21.10;90.40;;;;;;7338093;19;111267;-63
2023/05/19 11:57:02;;;;;;;;;;;21.00;90.10;;;;;;7332104;19;111046;-62
2023/05/19 11:59:33;;;;;;;;;;;21.10;92.50;;;;;;7331109;19;110687;-62
2023/05/19 12:02:14;;;;;;;;;;;21.20;92.30;;;;;;7331108;19;110362;-62
2023/05/19 12:04:41;;;;;;;;;;;21.40;92.00;;;;;;7334287;19;109512;-63
2023/05/19 12:07:10;;;;;;;;;;;21.60;91.40;;;;;;7334366;19;110855;-62
2023/05/19 12:09:38;;;;;;;;;;;21.70;91.30;;;;;;7333990;19;109992;-60
2023/05/19 12:12:06;;;;;;;;;;;21.80;90.40;;;;;;7339143;19;109593;-62
2023/05/19 12:14:34;;;;;;;;;;;22.10;90.10;;;;;;7334314;19;110284;-63
2023/05/19 12:17:22;;;;;;;;;;;22.10;89.60;;;;;;7334566;19;110586;-63
2023/05/19 12:19:50;;;;;;;;;;;22.10;88.10;;;;;;7332896;19;111987;-63
2023/05/19 12:22:17;;;;;;;;;;;22.00;85.30;;;;;;7333174;19;110659;-62
2023/05/19 12:24:45;;;;;;;;;;;21.90;83.40;;;;;;7329933;19;109739;-63
2023/05/19 12:27:19;;;;;;;;;;;21.70;86.80;;;;;;7329381;19;110148;-64
2023/05/19 12:29:52;;;;;;;;;;;21.90;86.20;;;;;;7333911;19;109413;-63
2023/05/19 12:32:23;;;;;;;;;;;22.00;85.60;;;;;;7329826;19;109772;-65
2023/05/19 12:34:50;;;;;;;;;;;22.00;83.90;;;;;;7339004;19;110290;-63
2023/05/19 12:37:18;;;;;;;;;;;22.00;84.40;;;;;;7330475;19;110912;-63
2023/05/19 12:39:47;;;;;;;;;;;22.00;84.80;;;;;;7332390;19;111544;-63
2023/05/19 12:42:14;;;;;;;;;;;21.80;82.60;;;;;;7333783;19;109510;-63
2023/05/19 12:44:45;;;;;;;;;;;21.90;85.10;;;;;;7334042;19;110188;-63
2023/05/19 12:47:13;;;;;;;;;;;22.10;85.50;;;;;;7331899;19;110687;-63
2023/05/19 12:49:59;;;;;;;;;;;22.40;84.30;;;;;;7332625;19;109361;-63
2023/05/19 12:52:26;;;;;;;;;;;22.60;84.10;;;;;;7331319;19;110163;-63
2023/05/19 12:55:06;;;;;;;;;;;22.70;83.30;;;;;;7332795;19;110901;-63
2023/05/19 12:57:34;;;;;;;;;;;22.70;81.60;;;;;;7336466;19;110815;-63
2023/05/19 13:00:05;;;;;;;;;;;22.70;84.90;;;;;;7327438;19;110935;-64
2023/05/19 13:02:34;;;;;;;;;;;22.70;82.50;;;;;;7334245;19;109230;-63
2023/05/19 13:05:02;;;;;;;;;;;22.60;79.90;;;;;;7332527;19;110002;-63
2023/05/19 13:07:29;;;;;;;;;;;22.60;79.50;;;;;;7333404;19;111225;-63
2023/05/19 13:09:56;;;;;;;;;;;22.60;77.20;;;;;;7332133;19;110044;-63
2023/05/19 13:12:24;;;;;;;;;;;22.60;79.30;;;;;;7331816;19;109582;-63
2023/05/19 13:14:51;;;;;;;;;;;22.60;80.10;;;;;;7329565;19;111229;-63
2023/05/19 13:17:21;;;;;;;;;;;22.80;80.70;;;;;;7332025;19;109850;-64
2023/05/19 13:19:48;;;;;;;;;;;22.80;80.70;;;;;;7335150;19;109527;-63
2023/05/19 13:22:15;;;;;;;;;;;22.90;77.50;;;;;;7330628;19;110541;-64
2023/05/19 13:24:42;;;;;;;;;;;22.80;78.50;;;;;;7331537;19;110223;-62
2023/05/19 13:27:09;;;;;;;;;;;22.70;76.30;;;;;;7329265;19;110561;-63
2023/05/19 13:29:36;;;;;;;;;;;22.70;78.90;;;;;;7331517;19;111287;-63
2023/05/19 13:32:03;;;;;;;;;;;22.70;78.80;;;;;;7332011;19;109724;-63
2023/05/19 13:34:31;;;;;;;;;;;22.90;78.70;;;;;;7332074;19;110871;-63
2023/05/19 13:36:58;;;;;;;;;;;23.20;79.60;;;;;;7335303;19;110017;-63
2023/05/19 13:39:25;;;;;;;;;;;23.40;79.20;;;;;;7341337;19;109758;-63
2023/05/19 13:41:52;;;;;;;;;;;23.60;78.80;;;;;;7345221;19;110232;-63
2023/05/19 13:44:19;;;;;;;;;;;23.70;77.80;;;;;;7339853;19;109574;-63
2023/05/19 13:46:47;;;;;;;;;;;23.60;75.80;;;;;;7336640;19;110190;-63
2023/05/19 13:49:17;;;;;;;;;;;23.60;77.20;;;;;;7340818;19;109246;-63
2023/05/19 13:51:44;;;;;;;;;;;23.70;76.30;;;;;;7340649;19;110196;-63
2023/05/19 13:54:11;;;;;;;;;;;23.80;76.50;;;;;;7339567;19;110449;-63
2023/05/19 13:56:38;;;;;;;;;;;24.00;76.20;;;;;;7337566;19;109470;-63
2023/05/19 13:59:05;;;;;;;;;;;24.10;76.10;;;;;;7337266;19;113488;-64
2023/05/19 14:01:33;;;;;;;;;;;24.20;75.10;;;;;;7341138;19;110304;-63
2023/05/19 14:04:00;;;;;;;;;;;24.10;74.50;;;;;;7335156;19;110123;-63
2023/05/19 14:06:27;;;;;;;;;;;24.00;73.60;;;;;;7338026;19;110379;-63
2023/05/19 14:08:54;;;;;;;;;;;24.10;75.20;;;;;;7334630;19;110900;-63
2023/05/19 14:11:21;;;;;;;;;;;24.10;73.60;;;;;;7333052;19;110352;-63
2023/05/19 14:13:49;;;;;;;;;;;24.00;74.70;;;;;;7337471;19;111207;-63